1994 ALEXINA (1993312S06080)


On this page: IBTrACS data - Map and Plots - Positions - Intensities - Original source data

Summary

Start Nov 7
End Nov 14
Basin SI
LMI 60 kt
Sources jtwc_sh
reunion
neumann
In WMO? Yes
Previous storm 1993 MISSING (NI)
Previous in basin 1993 KONITA (SI)
Concurrent storms 1993 JEANA (WP)
1993 MISSING (NI)
1993 MISSING (NI)
1994 ALEXINA (SI)
1993 MISSING (WP)
1993 MISSING (NI)
1993 MISSING (WP)
Next in basin Missing
Next storm 1993 MISSING (WP)

top of page IBTrACS Data: File Access

Image of storm

top of page Plots:

Map of storm track will not appear if FTP is down
Time series of cyclone Maximum Sustained Wind will not appear if FTP is down
Time series of cyclone Minimum Central Pressure will not appear if FTP is down

top of page Track Data:Position

jtwc_sh reunion neumann
Date Lat Lon Lat Lon Lat Lon
1993-11-07 18:00:00 -6.4 79.9 -6.4 79.9
1993-11-08 00:00:00 -6.7 80.2 -6.7 80.2
1993-11-08 06:00:00 -7.0 80.4 -7.0 80.4
1993-11-08 12:00:00 -7.4 80.6 -7.4 80.6
1993-11-08 18:00:00 -7.8 80.7 -7.8 80.7
1993-11-09 00:00:00 -8.2 80.7 -8.2 80.7
1993-11-09 06:00:00 -8.6 80.7 -8.5 80.6 -8.6 80.7
1993-11-09 12:00:00 -9.0 80.6 -8.7 80.3 -9.0 80.6
1993-11-09 18:00:00 -9.4 80.4 -9.2 80.8 -9.4 80.4
1993-11-10 00:00:00 -9.8 80.1 -9.8 81.1 -9.8 80.1
1993-11-10 06:00:00 -10.2 79.8 -10.2 80.5 -10.2 79.8
1993-11-10 12:00:00 -10.7 79.6 -10.9 80.0 -10.7 79.6
1993-11-10 18:00:00 -11.2 79.6 -11.6 79.9 -11.2 79.6
1993-11-11 00:00:00 -11.8 79.6 -12.5 79.8 -11.8 79.6
1993-11-11 06:00:00 -12.3 79.7 -13.4 79.8 -12.3 79.7
1993-11-11 12:00:00 -12.7 79.8 -14.0 79.8 -12.7 79.8
1993-11-11 18:00:00 -13.1 79.8 -14.2 80.0 -13.1 79.8
1993-11-12 00:00:00 -13.5 79.9 -14.1 80.2 -13.5 79.9
1993-11-12 06:00:00 -13.9 79.9 -14.4 80.2 -13.9 79.9
1993-11-12 12:00:00 -14.3 79.9 -14.8 80.2 -14.3 79.9
1993-11-12 18:00:00 -14.6 79.9 -15.2 80.3 -14.6 79.9
1993-11-13 00:00:00 -14.8 79.7 -15.6 80.2 -14.8 79.7
1993-11-13 06:00:00 -14.9 79.4 -15.7 80.1 -14.9 79.4
1993-11-13 12:00:00 -14.9 79.2 -15.6 80.0 -14.9 79.2
1993-11-13 18:00:00 -14.8 79.0 -15.5 79.8 -14.8 79.0
jtwc_sh reunion neumann
1993-11-14 00:00:00 -14.6 78.9 -15.4 79.6 -14.6 78.9

top of pageTrack Data:Intensity

jtwc_sh reunion neumann
Date Wind Pres Wind Pres Wind Pres
1993-11-07 18:00:00 20. 20.
1993-11-08 00:00:00 20. 20.
1993-11-08 06:00:00 20. 20.
1993-11-08 12:00:00 20. 20.
1993-11-08 18:00:00 25. 25.
1993-11-09 00:00:00 25. 25.
1993-11-09 06:00:00 30. 24. 1000. 30.
1993-11-09 12:00:00 35. 28. 997. 35.
1993-11-09 18:00:00 40. 30. 995. 40.
1993-11-10 00:00:00 45. 35. 992. 45.
1993-11-10 06:00:00 50. 37. 990. 50.
1993-11-10 12:00:00 55. 35. 992. 55.
1993-11-10 18:00:00 60. 37. 990. 60.
1993-11-11 00:00:00 60. 42. 986. 60.
1993-11-11 06:00:00 60. 46. 982. 60.
1993-11-11 12:00:00 60. 46. 982. 60.
1993-11-11 18:00:00 55. 44. 984. 55.
1993-11-12 00:00:00 55. 40. 988. 55.
1993-11-12 06:00:00 50. 37. 990. 50.
1993-11-12 12:00:00 45. 35. 992. 45.
1993-11-12 18:00:00 45. 30. 995. 45.
1993-11-13 00:00:00 40. 30. 995. 40.
1993-11-13 06:00:00 35. 28. 997. 35.
1993-11-13 12:00:00 30. 28. 997. 30.
1993-11-13 18:00:00 30. 24. 1000. 30.
jtwc_sh reunion neumann
1993-11-14 00:00:00 25. 24. 1000. 25.

top of page Links to source data

Source Source file Format
jtwc_sh bsh011994.txt ATCF
reunion WMO-Best-Tracks.txt:Line=16165:alexina WMO (old format)
neumann tracks.sh:Storm=983:ALEXINA:BSH011994:JTWC HURDAT